Time;durP1;ratioP1;P1;durP2;ratioP2;P2;SDS_P1;SDS_P2;PMS_P1;PMS_P2;Temp;Humidity;BMP_temperature;BMP_pressure;BME280_temperature;BME280_humidity;BME280_pressure;Samples;Min_cycle;Max_cycle;Signal;HPM_P1;HPM_P2
2023/02/27 00:01:44;;;;;;;2.53;0.95;;;;;;;;;;6125437;23;20037;-73
2023/02/27 00:04:10;;;;;;;3.40;0.98;;;;;;;;;;6083694;23;20025;-69
2023/02/27 00:06:39;;;;;;;1.85;0.80;;;;;;;;;;6073966;23;20041;-70
2023/02/27 00:09:10;;;;;;;1.40;0.80;;;;;;;;;;6051443;23;20032;-72
2023/02/27 00:14:14;;;;;;;1.50;0.88;;;;;;;;;;5007946;27;20445;-71
2023/02/27 00:16:40;;;;;;;3.60;0.90;;;;;;;;;;4937906;28;20057;-73
2023/02/27 00:19:07;;;;;;;1.15;0.68;;;;;;;;;;4999887;28;20055;-71
2023/02/27 00:21:34;;;;;;;2.88;0.95;;;;;;;;;;4960346;28;20201;-72
2023/02/27 00:24:01;;;;;;;2.22;0.77;;;;;;;;;;4920760;28;20051;-72
2023/02/27 00:31:20;;;;;;;2.53;0.98;;;;;;;;;;4861019;28;20142;-70
2023/02/27 00:33:46;;;;;;;2.30;0.75;;;;;;;;;;4946192;28;20061;-70
2023/02/27 00:36:13;;;;;;;1.58;0.70;;;;;;;;;;4974618;28;20145;-68
2023/02/27 00:38:40;;;;;;;2.33;0.75;;;;;;;;;;4976011;28;20046;-67
2023/02/27 00:41:06;;;;;;;2.53;0.80;;;;;;;;;;4978186;28;20058;-67
2023/02/27 00:43:33;;;;;;;1.90;0.73;;;;;;;;;;4975447;28;20085;-68
2023/02/27 00:45:59;;;;;;;0.70;0.52;;;;;;;;;;4980613;28;20161;-69
2023/02/27 00:48:27;;;;;;;1.48;0.73;;;;;;;;;;4988562;28;20074;-67
2023/02/27 00:50:54;;;;;;;0.80;0.43;;;;;;;;;;4967049;28;20050;-69
2023/02/27 00:53:20;;;;;;;3.50;1.00;;;;;;;;;;4978386;28;20057;-69
2023/02/27 00:55:47;;;;;;;3.05;0.88;;;;;;;;;;4971902;28;20059;-68
2023/02/27 00:58:13;;;;;;;1.33;0.63;;;;;;;;;;5012904;28;20058;-70
2023/02/27 01:00:40;;;;;;;2.45;0.75;;;;;;;;;;4963557;28;20140;-70
2023/02/27 01:03:06;;;;;;;0.90;0.50;;;;;;;;;;4965026;28;20055;-67
2023/02/27 01:05:34;;;;;;;2.40;0.60;;;;;;;;;;5003445;28;20058;-68
2023/02/27 01:08:01;;;;;;;1.43;0.70;;;;;;;;;;4973552;28;20082;-68
2023/02/27 01:10:27;;;;;;;3.38;0.90;;;;;;;;;;4975629;28;20118;-68
2023/02/27 01:12:54;;;;;;;2.78;1.02;;;;;;;;;;4972940;28;20053;-67
2023/02/27 01:15:20;;;;;;;1.25;0.70;;;;;;;;;;4980930;28;20081;-68
2023/02/27 01:17:48;;;;;;;3.53;0.85;;;;;;;;;;4980186;28;20111;-69
2023/02/27 01:20:14;;;;;;;2.25;0.80;;;;;;;;;;4992260;28;20065;-69
2023/02/27 01:22:42;;;;;;;0.55;0.45;;;;;;;;;;4961850;28;20074;-68
2023/02/27 01:25:09;;;;;;;3.00;0.60;;;;;;;;;;4967659;28;20058;-67
2023/02/27 01:27:36;;;;;;;1.63;0.85;;;;;;;;;;4965036;28;20313;-67
2023/02/27 01:30:03;;;;;;;1.58;0.60;;;;;;;;;;4969772;28;20050;-69
2023/02/27 01:32:29;;;;;;;1.05;0.60;;;;;;;;;;4968184;28;20157;-70
2023/02/27 01:34:56;;;;;;;0.75;0.60;;;;;;;;;;4945693;28;20063;-69
2023/02/27 01:37:22;;;;;;;1.55;0.50;;;;;;;;;;4943318;28;20047;-68
2023/02/27 01:39:50;;;;;;;1.80;0.88;;;;;;;;;;4950822;28;20161;-70
2023/02/27 01:42:18;;;;;;;1.40;0.60;;;;;;;;;;4954992;28;20073;-69
2023/02/27 01:45:03;;;;;;;4.65;0.80;;;;;;;;;;4970679;28;20096;-67
2023/02/27 01:47:30;;;;;;;1.60;0.60;;;;;;;;;;4961998;28;20153;-68
2023/02/27 01:49:57;;;;;;;0.65;0.50;;;;;;;;;;4983843;28;20063;-70
2023/02/27 01:52:23;;;;;;;2.92;0.88;;;;;;;;;;4949748;28;20058;-68
2023/02/27 01:54:52;;;;;;;2.15;0.70;;;;;;;;;;4981253;28;20054;-69
2023/02/27 01:57:18;;;;;;;;;;;;;;;;;;4956437;28;20067;-70
2023/02/27 01:59:44;;;;;;;0.95;0.50;;;;;;;;;;4959264;28;19926;-67
2023/02/27 02:02:13;;;;;;;1.15;0.63;;;;;;;;;;4952023;28;20058;-70
2023/02/27 02:04:45;;;;;;;1.98;0.80;;;;;;;;;;4958234;28;20078;-68
2023/02/27 02:07:12;;;;;;;7.35;0.93;;;;;;;;;;4987866;28;20158;-69
2023/02/27 02:09:40;;;;;;;1.83;0.80;;;;;;;;;;4975276;28;20060;-69
2023/02/27 02:12:09;;;;;;;1.50;0.80;;;;;;;;;;4960610;28;22404;-68
2023/02/27 02:14:36;;;;;;;1.17;0.73;;;;;;;;;;4955336;28;20135;-69
2023/02/27 02:17:08;;;;;;;4.22;0.73;;;;;;;;;;4988895;28;20129;-69
2023/02/27 02:19:46;;;;;;;2.35;0.75;;;;;;;;;;4976656;28;20054;-68
2023/02/27 02:22:29;;;;;;;1.73;0.63;;;;;;;;;;4942203;28;20354;-68
2023/02/27 02:25:08;;;;;;;1.45;0.73;;;;;;;;;;4940564;28;20067;-69
2023/02/27 02:27:44;;;;;;;1.40;0.70;;;;;;;;;;4947183;28;20057;-69
2023/02/27 02:30:34;;;;;;;2.13;0.85;;;;;;;;;;4963499;28;20189;-70
2023/02/27 02:33:16;;;;;;;1.50;0.70;;;;;;;;;;4932659;28;20156;-68
2023/02/27 02:36:00;;;;;;;1.02;0.75;;;;;;;;;;4946673;28;20147;-69
2023/02/27 02:38:33;;;;;;;3.35;0.80;;;;;;;;;;4939184;28;20123;-68
2023/02/27 02:41:05;;;;;;;1.92;0.88;;;;;;;;;;4937056;28;20422;-69
2023/02/27 02:43:38;;;;;;;2.13;0.98;;;;;;;;;;4956782;28;20086;-68
2023/02/27 02:46:09;;;;;;;6.13;1.10;;;;;;;;;;4961046;28;20138;-68
2023/02/27 02:48:40;;;;;;;3.63;0.90;;;;;;;;;;4954433;28;20054;-69
2023/02/27 02:51:10;;;;;;;2.08;0.90;;;;;;;;;;4960705;28;20061;-69
2023/02/27 02:53:42;;;;;;;3.15;1.00;;;;;;;;;;4967294;28;20137;-68
2023/02/27 02:56:12;;;;;;;1.13;0.60;;;;;;;;;;4957732;28;20146;-67
2023/02/27 02:58:44;;;;;;;1.98;0.80;;;;;;;;;;4994547;28;20211;-68
2023/02/27 03:01:12;;;;;;;2.33;1.00;;;;;;;;;;4966875;28;20062;-69
2023/02/27 03:03:41;;;;;;;3.97;1.15;;;;;;;;;;4887847;28;20050;-66
2023/02/27 03:06:10;;;;;;;4.80;0.95;;;;;;;;;;4951905;28;20061;-69
2023/02/27 03:08:42;;;;;;;2.22;0.80;;;;;;;;;;4981051;28;20112;-69
2023/02/27 03:11:09;;;;;;;2.17;0.90;;;;;;;;;;4971169;28;20144;-67
2023/02/27 03:13:37;;;;;;;1.27;0.75;;;;;;;;;;4968108;28;20051;-69
2023/02/27 03:16:07;;;;;;;3.45;1.10;;;;;;;;;;4961081;28;20106;-68
2023/02/27 03:18:35;;;;;;;2.25;0.90;;;;;;;;;;4953012;28;20053;-69
2023/02/27 03:21:04;;;;;;;2.70;0.95;;;;;;;;;;4980791;28;20126;-68
2023/02/27 03:23:33;;;;;;;1.65;0.77;;;;;;;;;;4947192;28;20162;-68
2023/02/27 03:25:59;;;;;;;;;;;;;;;;;;4958424;28;20070;-69
2023/02/27 03:28:30;;;;;;;2.15;1.00;;;;;;;;;;4955349;28;19961;-68
2023/02/27 03:30:59;;;;;;;3.22;0.88;;;;;;;;;;4971951;28;20144;-69
2023/02/27 03:33:28;;;;;;;2.80;0.85;;;;;;;;;;4949670;28;20054;-67
2023/02/27 03:35:58;;;;;;;2.58;1.10;;;;;;;;;;4965052;28;20058;-68
2023/02/27 03:38:31;;;;;;;6.07;1.00;;;;;;;;;;4956129;28;20132;-68
2023/02/27 03:41:01;;;;;;;3.60;0.70;;;;;;;;;;4967646;28;20046;-68
2023/02/27 03:43:30;;;;;;;1.55;1.00;;;;;;;;;;4938973;28;20370;-68
2023/02/27 03:46:00;;;;;;;2.08;1.05;;;;;;;;;;4963497;28;20128;-68
2023/02/27 03:48:27;;;;;;;1.55;0.85;;;;;;;;;;4954095;28;20051;-67
2023/02/27 03:50:53;;;;;;;2.30;0.90;;;;;;;;;;4963831;28;20102;-67
2023/02/27 03:53:23;;;;;;;2.22;0.90;;;;;;;;;;4945096;28;20098;-68
2023/02/27 03:55:51;;;;;;;1.88;0.90;;;;;;;;;;4962356;28;20050;-68
2023/02/27 03:58:17;;;;;;;2.42;0.90;;;;;;;;;;4963435;28;20125;-68
2023/02/27 04:00:46;;;;;;;2.25;0.88;;;;;;;;;;4968253;28;20066;-67
2023/02/27 04:03:13;;;;;;;2.28;0.90;;;;;;;;;;4966559;28;20065;-68
2023/02/27 04:05:39;;;;;;;2.03;1.00;;;;;;;;;;4953145;28;20246;-69
2023/02/27 04:08:18;;;;;;;1.63;0.75;;;;;;;;;;4965779;28;20066;-68
2023/02/27 04:10:54;;;;;;;1.35;0.68;;;;;;;;;;4974144;28;20054;-67
2023/02/27 04:13:54;;;;;;;1.52;0.70;;;;;;;;;;4947384;28;20050;-67
2023/02/27 04:16:39;;;;;;;3.72;0.82;;;;;;;;;;4907619;29;20082;-67
2023/02/27 04:19:15;;;;;;;4.57;1.10;;;;;;;;;;4887313;29;20083;-68
2023/02/27 04:21:43;;;;;;;0.98;0.55;;;;;;;;;;4923029;28;20073;-67
2023/02/27 04:24:10;;;;;;;;;;;;;;;;;;4959350;28;20073;-67
2023/02/27 04:26:39;;;;;;;2.13;0.73;;;;;;;;;;4956661;28;19973;-67
2023/02/27 04:29:07;;;;;;;1.25;0.60;;;;;;;;;;4953389;28;20376;-67
2023/02/27 04:31:41;;;;;;;1.10;0.70;;;;;;;;;;4994408;28;20061;-67
2023/02/27 04:34:11;;;;;;;1.35;0.70;;;;;;;;;;4949037;28;20082;-66
2023/02/27 04:36:41;;;;;;;2.05;1.00;;;;;;;;;;5000775;28;20141;-66
2023/02/27 04:39:08;;;;;;;2.22;0.90;;;;;;;;;;4971305;28;20062;-67
2023/02/27 04:41:38;;;;;;;1.65;0.68;;;;;;;;;;4943987;28;20138;-67
2023/02/27 04:44:05;;;;;;;3.17;0.88;;;;;;;;;;4952568;28;20146;-68
2023/02/27 04:46:33;;;;;;;2.00;0.77;;;;;;;;;;4963115;28;20082;-67
2023/02/27 04:49:03;;;;;;;3.70;0.88;;;;;;;;;;4963523;28;20208;-67
2023/02/27 04:51:33;;;;;;;1.38;0.70;;;;;;;;;;4962756;28;20062;-67
2023/02/27 04:54:02;;;;;;;2.70;1.13;;;;;;;;;;4938584;28;20050;-68
2023/02/27 04:56:30;;;;;;;4.78;0.80;;;;;;;;;;4975626;28;20063;-67
2023/02/27 04:58:59;;;;;;;1.25;0.70;;;;;;;;;;4964328;28;20161;-67
2023/02/27 05:01:29;;;;;;;1.42;0.70;;;;;;;;;;4973737;28;20068;-67
2023/02/27 05:03:57;;;;;;;3.42;1.30;;;;;;;;;;4939716;28;20110;-67
2023/02/27 05:06:29;;;;;;;1.90;0.63;;;;;;;;;;4974351;28;20058;-67
2023/02/27 05:08:58;;;;;;;1.40;0.90;;;;;;;;;;4966380;28;20074;-67
2023/02/27 05:11:28;;;;;;;2.10;0.65;;;;;;;;;;4956068;28;20081;-67
2023/02/27 05:13:56;;;;;;;1.25;0.70;;;;;;;;;;4958786;28;20181;-67
2023/02/27 05:16:25;;;;;;;1.88;0.73;;;;;;;;;;4970009;28;20202;-66
2023/02/27 05:18:52;;;;;;;2.03;0.90;;;;;;;;;;5000255;28;20069;-67
2023/02/27 05:21:23;;;;;;;1.40;0.77;;;;;;;;;;4973576;28;20058;-66
2023/02/27 05:23:56;;;;;;;1.75;0.85;;;;;;;;;;4941810;28;20063;-67
2023/02/27 05:26:27;;;;;;;2.40;0.93;;;;;;;;;;4965488;28;20059;-67
2023/02/27 05:28:55;;;;;;;2.15;0.73;;;;;;;;;;4961738;28;20108;-67
2023/02/27 05:31:24;;;;;;;2.97;0.95;;;;;;;;;;4969080;28;20081;-67
2023/02/27 05:33:55;;;;;;;1.83;0.80;;;;;;;;;;4966834;28;20070;-68
2023/02/27 05:36:24;;;;;;;2.75;0.88;;;;;;;;;;4997568;28;20106;-67
2023/02/27 05:38:55;;;;;;;2.13;0.80;;;;;;;;;;4976484;28;20056;-68
2023/02/27 05:41:26;;;;;;;1.20;0.65;;;;;;;;;;4970847;28;20053;-67
2023/02/27 05:43:55;;;;;;;2.05;0.73;;;;;;;;;;4950566;28;20223;-68
2023/02/27 05:46:24;;;;;;;3.15;1.10;;;;;;;;;;4960620;28;20066;-67
2023/02/27 05:48:54;;;;;;;1.17;0.57;;;;;;;;;;4952353;28;20058;-68
2023/02/27 05:51:21;;;;;;;1.67;0.73;;;;;;;;;;4965705;28;20054;-67
2023/02/27 05:53:50;;;;;;;1.85;0.80;;;;;;;;;;4943884;28;20096;-68
2023/02/27 05:56:19;;;;;;;2.75;0.77;;;;;;;;;;4963515;28;20060;-67
2023/02/27 05:58:49;;;;;;;3.53;0.85;;;;;;;;;;4964836;28;20065;-68
2023/02/27 06:01:15;;;;;;;2.25;0.90;;;;;;;;;;4970700;28;20054;-67
2023/02/27 06:03:42;;;;;;;2.03;0.57;;;;;;;;;;4970091;28;20054;-67
2023/02/27 06:06:11;;;;;;;1.67;0.65;;;;;;;;;;5007890;28;20169;-67
2023/02/27 06:08:38;;;;;;;1.38;0.75;;;;;;;;;;4947252;28;20046;-68
2023/02/27 06:11:05;;;;;;;2.60;0.70;;;;;;;;;;4952129;28;20077;-67
2023/02/27 06:13:33;;;;;;;1.85;0.70;;;;;;;;;;4937641;28;20053;-68
2023/02/27 06:16:00;;;;;;;2.25;0.65;;;;;;;;;;4994857;28;20141;-67
2023/02/27 06:18:27;;;;;;;1.13;0.80;;;;;;;;;;4999359;28;20306;-67
2023/02/27 06:20:53;;;;;;;2.33;1.05;;;;;;;;;;5014546;28;20051;-67
2023/02/27 06:23:20;;;;;;;4.63;1.13;;;;;;;;;;4998423;28;20061;-68
2023/02/27 06:25:48;;;;;;;1.65;1.00;;;;;;;;;;5005927;28;21227;-67
2023/02/27 06:28:14;;;;;;;2.42;0.88;;;;;;;;;;5009941;28;20098;-68
2023/02/27 06:30:42;;;;;;;1.25;0.73;;;;;;;;;;5012255;28;20057;-67
2023/02/27 06:33:09;;;;;;;2.33;0.98;;;;;;;;;;4960810;28;20056;-67
2023/02/27 06:35:36;;;;;;;1.60;0.75;;;;;;;;;;4976152;28;20063;-67
2023/02/27 06:38:02;;;;;;;2.25;1.10;;;;;;;;;;5001250;28;20125;-67
2023/02/27 06:40:30;;;;;;;3.63;0.90;;;;;;;;;;5012542;28;20069;-67
2023/02/27 06:42:57;;;;;;;2.00;0.90;;;;;;;;;;5001054;28;20053;-67
2023/02/27 06:45:24;;;;;;;3.85;0.80;;;;;;;;;;4998597;28;20057;-68
2023/02/27 06:47:52;;;;;;;1.92;0.90;;;;;;;;;;4979285;28;20115;-67
2023/02/27 06:50:19;;;;;;;1.92;0.90;;;;;;;;;;4972827;28;20124;-67
2023/02/27 06:52:45;;;;;;;2.35;0.80;;;;;;;;;;4990427;28;20122;-67
2023/02/27 06:55:12;;;;;;;2.88;0.95;;;;;;;;;;5011678;28;20059;-67
2023/02/27 06:57:38;;;;;;;8.35;1.08;;;;;;;;;;4988722;28;20058;-67
2023/02/27 07:00:06;;;;;;;2.08;1.00;;;;;;;;;;5002079;28;20064;-67
2023/02/27 07:02:35;;;;;;;1.45;0.82;;;;;;;;;;4980626;28;20061;-67
2023/02/27 07:05:10;;;;;;;3.60;0.90;;;;;;;;;;4999315;28;20054;-67
2023/02/27 07:07:37;;;;;;;2.00;0.70;;;;;;;;;;4997197;28;20061;-67
2023/02/27 07:10:12;;;;;;;2.45;0.82;;;;;;;;;;4975022;28;20072;-67
2023/02/27 07:12:38;;;;;;;3.25;0.90;;;;;;;;;;4995617;28;20113;-67
2023/02/27 07:15:10;;;;;;;1.42;0.70;;;;;;;;;;4984107;28;20145;-68
2023/02/27 07:17:36;;;;;;;1.73;0.73;;;;;;;;;;4996490;28;20144;-68
2023/02/27 07:20:09;;;;;;;1.67;0.73;;;;;;;;;;5002754;28;20060;-67
2023/02/27 07:22:35;;;;;;;1.85;0.75;;;;;;;;;;4998927;28;20072;-67
2023/02/27 07:25:02;;;;;;;2.42;0.90;;;;;;;;;;5007417;28;20082;-68
2023/02/27 07:27:28;;;;;;;5.43;1.08;;;;;;;;;;4994060;28;20108;-68
2023/02/27 07:29:55;;;;;;;1.85;0.73;;;;;;;;;;5003391;28;20152;-67
2023/02/27 07:32:22;;;;;;;1.80;0.80;;;;;;;;;;5001207;28;20085;-67
2023/02/27 07:34:48;;;;;;;2.67;1.10;;;;;;;;;;5003575;28;20057;-67
2023/02/27 07:37:16;;;;;;;2.08;0.90;;;;;;;;;;5001700;28;20049;-67
2023/02/27 07:39:43;;;;;;;2.17;0.80;;;;;;;;;;4993410;28;20049;-67
2023/02/27 07:42:10;;;;;;;3.95;1.10;;;;;;;;;;5012966;28;20080;-68
2023/02/27 07:44:39;;;;;;;2.00;0.70;;;;;;;;;;4977151;28;20049;-67
2023/02/27 07:47:06;;;;;;;2.92;0.93;;;;;;;;;;5008378;28;20053;-68
2023/02/27 07:49:32;;;;;;;3.85;0.80;;;;;;;;;;4976816;28;20070;-67
2023/02/27 07:51:59;;;;;;;4.35;1.08;;;;;;;;;;5000142;28;20199;-67
2023/02/27 07:54:27;;;;;;;3.47;0.88;;;;;;;;;;4994118;28;20069;-67
2023/02/27 07:56:53;;;;;;;1.63;0.82;;;;;;;;;;5002588;28;20076;-67
2023/02/27 07:59:20;;;;;;;1.10;0.70;;;;;;;;;;5000244;28;20202;-67
2023/02/27 08:01:47;;;;;;;1.60;0.93;;;;;;;;;;4989584;28;20057;-67
2023/02/27 08:04:16;;;;;;;0.90;0.70;;;;;;;;;;5010228;28;20111;-68
2023/02/27 08:06:43;;;;;;;3.55;1.13;;;;;;;;;;5000659;28;20075;-68
2023/02/27 08:09:10;;;;;;;3.17;0.90;;;;;;;;;;4993491;28;20124;-68
2023/02/27 08:11:38;;;;;;;2.13;0.82;;;;;;;;;;4989329;28;20053;-68
2023/02/27 08:14:05;;;;;;;1.60;0.85;;;;;;;;;;4995164;28;20057;-68
2023/02/27 08:16:32;;;;;;;2.53;1.00;;;;;;;;;;4988462;28;20122;-68
2023/02/27 08:18:59;;;;;;;2.78;0.93;;;;;;;;;;5002420;28;20083;-69
2023/02/27 08:21:25;;;;;;;3.78;1.10;;;;;;;;;;4981924;28;20048;-68
2023/02/27 08:23:53;;;;;;;2.83;0.80;;;;;;;;;;4990276;28;20062;-67
2023/02/27 08:26:20;;;;;;;1.83;0.80;;;;;;;;;;4977141;28;20048;-67
2023/02/27 08:28:48;;;;;;;2.15;0.95;;;;;;;;;;4993761;28;20078;-70
2023/02/27 08:31:15;;;;;;;1.27;0.80;;;;;;;;;;4994794;28;20058;-68
2023/02/27 08:33:41;;;;;;;3.15;1.10;;;;;;;;;;5005047;28;20198;-69
2023/02/27 08:36:08;;;;;;;1.65;0.77;;;;;;;;;;5011130;28;20190;-67
2023/02/27 08:38:35;;;;;;;3.22;1.00;;;;;;;;;;5013237;28;20061;-68
2023/02/27 08:41:01;;;;;;;3.60;1.20;;;;;;;;;;4989558;28;20085;-68
2023/02/27 08:43:28;;;;;;;3.55;1.00;;;;;;;;;;4972433;28;20058;-69
2023/02/27 08:45:56;;;;;;;1.88;0.90;;;;;;;;;;4985453;28;20179;-69
2023/02/27 08:48:23;;;;;;;2.70;1.05;;;;;;;;;;5000677;28;20057;-68
2023/02/27 08:50:50;;;;;;;2.50;0.68;;;;;;;;;;5015153;28;20045;-71
2023/02/27 08:53:19;;;;;;;4.13;1.17;;;;;;;;;;5003013;28;20164;-68
2023/02/27 08:55:49;;;;;;;6.43;1.40;;;;;;;;;;4990537;28;20054;-67
2023/02/27 08:58:15;;;;;;;3.97;1.20;;;;;;;;;;5020963;28;20077;-68
2023/02/27 09:00:42;;;;;;;1.88;0.98;;;;;;;;;;5012495;28;20186;-69
2023/02/27 09:03:11;;;;;;;2.10;0.90;;;;;;;;;;4996603;28;20235;-70
2023/02/27 09:05:38;;;;;;;1.55;1.00;;;;;;;;;;4985456;28;20133;-70
2023/02/27 09:08:05;;;;;;;4.82;1.00;;;;;;;;;;4998211;28;20060;-68
2023/02/27 09:10:33;;;;;;;1.98;1.02;;;;;;;;;;5006318;28;20049;-69
2023/02/27 09:13:00;;;;;;;2.88;1.10;;;;;;;;;;5007612;28;20107;-71
2023/02/27 09:15:28;;;;;;;2.53;1.00;;;;;;;;;;5017639;28;20045;-70
2023/02/27 09:17:59;;;;;;;2.67;1.20;;;;;;;;;;5000200;28;20049;-70
2023/02/27 09:20:26;;;;;;;3.55;0.98;;;;;;;;;;4990361;28;20054;-69
2023/02/27 09:22:53;;;;;;;2.58;0.90;;;;;;;;;;5008130;28;20204;-69
2023/02/27 09:25:23;;;;;;;3.25;1.10;;;;;;;;;;4980792;28;20060;-70
2023/02/27 09:27:49;;;;;;;1.88;0.77;;;;;;;;;;4985920;28;20069;-70
2023/02/27 09:30:16;;;;;;;1.63;0.60;;;;;;;;;;4983219;28;20139;-68
2023/02/27 09:32:43;;;;;;;2.97;1.08;;;;;;;;;;4997651;28;20049;-71
2023/02/27 09:35:09;;;;;;;1.98;0.82;;;;;;;;;;5008875;28;20056;-69
2023/02/27 09:37:38;;;;;;;1.45;0.80;;;;;;;;;;4993387;28;20370;-69
2023/02/27 09:40:08;;;;;;;2.17;0.90;;;;;;;;;;4985504;28;20169;-70
2023/02/27 09:42:40;;;;;;;2.97;1.10;;;;;;;;;;5012317;28;20064;-70
2023/02/27 09:45:13;;;;;;;1.77;0.98;;;;;;;;;;4990766;28;20405;-68
2023/02/27 09:47:42;;;;;;;1.85;0.68;;;;;;;;;;4998123;28;20283;-71
2023/02/27 09:50:20;;;;;;;1.23;0.82;;;;;;;;;;4990179;28;20073;-70
2023/02/27 09:52:48;;;;;;;1.65;0.68;;;;;;;;;;5013053;28;20366;-71
2023/02/27 09:55:17;;;;;;;1.55;0.73;;;;;;;;;;4986407;28;20139;-68
2023/02/27 09:57:47;;;;;;;1.10;0.65;;;;;;;;;;5000365;28;20130;-68
2023/02/27 10:00:24;;;;;;;4.22;1.08;;;;;;;;;;4991468;28;20071;-70
2023/02/27 10:02:55;;;;;;;1.95;0.75;;;;;;;;;;5012565;28;20080;-67
2023/02/27 10:05:26;;;;;;;3.33;0.93;;;;;;;;;;4989131;28;20057;-68
2023/02/27 10:07:59;;;;;;;2.50;0.90;;;;;;;;;;5003495;28;20117;-69
2023/02/27 10:10:30;;;;;;;3.38;1.05;;;;;;;;;;5024524;28;20058;-69
2023/02/27 10:13:08;;;;;;;1.95;0.90;;;;;;;;;;5002638;28;20072;-68
2023/02/27 10:15:37;;;;;;;3.13;0.80;;;;;;;;;;4982285;28;20061;-68
2023/02/27 10:18:05;;;;;;;1.90;1.08;;;;;;;;;;5026128;28;20057;-68
2023/02/27 10:20:33;;;;;;;1.48;0.77;;;;;;;;;;4987685;28;20077;-69
2023/02/27 10:23:03;;;;;;;1.85;0.82;;;;;;;;;;5010006;28;20143;-68
2023/02/27 10:25:31;;;;;;;2.72;0.80;;;;;;;;;;4983156;28;20102;-71
2023/02/27 10:28:00;;;;;;;1.08;0.70;;;;;;;;;;4991319;28;20122;-68
2023/02/27 10:30:28;;;;;;;3.30;1.00;;;;;;;;;;5000429;28;20217;-68
2023/02/27 10:32:56;;;;;;;2.33;0.60;;;;;;;;;;4996129;28;20061;-68
2023/02/27 10:35:23;;;;;;;;;;;;;;;;;;5009681;28;20136;-68
2023/02/27 10:37:50;;;;;;;2.47;0.60;;;;;;;;;;4969668;28;19925;-70
2023/02/27 10:40:20;;;;;;;1.25;0.60;;;;;;;;;;4989168;28;20058;-72
2023/02/27 10:42:46;;;;;;;2.10;0.90;;;;;;;;;;4975395;28;20049;-68
2023/02/27 10:45:14;;;;;;;1.70;0.85;;;;;;;;;;5005134;28;20049;-71
2023/02/27 10:47:41;;;;;;;0.90;0.63;;;;;;;;;;4976073;28;20053;-68
2023/02/27 10:50:20;;;;;;;1.58;0.50;;;;;;;;;;5016471;28;20050;-69
2023/02/27 10:52:50;;;;;;;2.90;0.88;;;;;;;;;;4970890;28;20045;-67
2023/02/27 10:55:21;;;;;;;1.05;0.70;;;;;;;;;;4971944;28;20129;-71
2023/02/27 10:57:47;;;;;;;6.18;0.80;;;;;;;;;;4989317;28;20053;-67
2023/02/27 11:00:24;;;;;;;1.92;0.52;;;;;;;;;;5001312;28;20164;-71
2023/02/27 11:02:51;;;;;;;1.70;0.80;;;;;;;;;;4972873;28;20051;-71
2023/02/27 11:05:23;;;;;;;4.22;0.70;;;;;;;;;;4954916;28;20157;-67
2023/02/27 11:07:50;;;;;;;1.60;0.57;;;;;;;;;;4971505;28;20041;-69
2023/02/27 11:10:20;;;;;;;1.60;0.80;;;;;;;;;;5012153;28;20076;-68
2023/02/27 11:12:57;;;;;;;1.45;0.65;;;;;;;;;;5000363;28;20053;-69
2023/02/27 11:15:27;;;;;;;3.30;0.90;;;;;;;;;;4984565;28;20099;-71
2023/02/27 11:17:54;;;;;;;1.42;0.70;;;;;;;;;;4993505;28;20054;-74
2023/02/27 11:20:35;;;;;;;1.63;0.70;;;;;;;;;;4975407;28;20077;-73
2023/02/27 11:23:05;;;;;;;3.40;0.60;;;;;;;;;;4993167;28;20213;-75
2023/02/27 11:25:33;;;;;;;2.08;0.70;;;;;;;;;;4972540;28;20057;-71
2023/02/27 11:28:13;;;;;;;1.15;0.50;;;;;;;;;;4999833;28;20109;-70
2023/02/27 11:30:42;;;;;;;2.10;0.70;;;;;;;;;;5004417;28;20085;-74
2023/02/27 11:33:08;;;;;;;;;;;;;;;;;;5003359;28;20049;-73
2023/02/27 11:35:37;;;;;;;1.83;0.63;;;;;;;;;;4957856;28;20196;-75
2023/02/27 11:38:04;;;;;;;2.50;0.65;;;;;;;;;;4981955;28;20078;-70
2023/02/27 11:40:32;;;;;;;3.42;0.70;;;;;;;;;;4988922;28;20504;-78
2023/02/27 11:43:03;;;;;;;1.25;0.57;;;;;;;;;;5010461;28;20061;-73
2023/02/27 11:45:31;;;;;;;1.50;0.50;;;;;;;;;;4973736;28;20083;-67
2023/02/27 11:48:00;;;;;;;1.33;0.70;;;;;;;;;;4986629;28;20135;-77
2023/02/27 11:50:50;;;;;;;2.08;0.75;;;;;;;;;;5002138;28;20120;-72
2023/02/27 11:53:41;;;;;;;1.95;0.80;;;;;;;;;;4987957;28;20143;-72
2023/02/27 11:56:10;;;;;;;1.13;0.65;;;;;;;;;;4924500;28;20062;-74
2023/02/27 11:58:41;;;;;;;0.82;0.63;;;;;;;;;;4990104;28;20101;-77
2023/02/27 12:01:11;;;;;;;0.60;0.50;;;;;;;;;;4984769;28;20049;-68
2023/02/27 12:03:40;;;;;;;1.38;0.70;;;;;;;;;;4965383;28;20065;-71
2023/02/27 12:06:13;;;;;;;1.08;0.55;;;;;;;;;;5010165;28;20052;-71
2023/02/27 12:08:41;;;;;;;1.73;0.70;;;;;;;;;;4992882;28;20045;-68
2023/02/27 12:11:14;;;;;;;1.25;0.52;;;;;;;;;;4996443;28;20053;-68
2023/02/27 12:13:43;;;;;;;1.05;0.60;;;;;;;;;;4973384;28;20073;-69
2023/02/27 12:16:15;;;;;;;2.45;0.60;;;;;;;;;;4991939;28;20057;-70
2023/02/27 12:18:46;;;;;;;0.80;0.60;;;;;;;;;;5007416;28;20113;-71
2023/02/27 12:21:15;;;;;;;1.20;0.60;;;;;;;;;;4982156;28;20130;-75
2023/02/27 12:23:44;;;;;;;1.48;0.45;;;;;;;;;;4971448;28;20050;-69
2023/02/27 12:26:14;;;;;;;1.85;0.60;;;;;;;;;;4973112;28;20061;-67
2023/02/27 12:28:49;;;;;;;0.60;0.32;;;;;;;;;;5009062;28;20068;-71
2023/02/27 12:31:29;;;;;;;1.13;0.75;;;;;;;;;;4975853;28;20632;-74
2023/02/27 12:33:57;;;;;;;0.98;0.60;;;;;;;;;;5013624;28;20065;-69
2023/02/27 12:36:26;;;;;;;1.10;0.68;;;;;;;;;;4992786;28;20262;-70
2023/02/27 12:38:52;;;;;;;;;;;;;;;;;;4998105;28;20054;-75
2023/02/27 12:41:35;;;;;;;0.47;0.47;;;;;;;;;;4980976;28;20375;-76
2023/02/27 12:44:12;;;;;;;1.38;0.50;;;;;;;;;;4994433;28;20453;-77
2023/02/27 12:46:45;;;;;;;1.95;0.60;;;;;;;;;;4993304;28;20062;-70
2023/02/27 12:49:16;;;;;;;1.77;0.60;;;;;;;;;;4991150;28;20185;-76
2023/02/27 12:51:48;;;;;;;1.92;0.60;;;;;;;;;;4986639;28;20057;-73
2023/02/27 12:54:24;;;;;;;2.70;0.68;;;;;;;;;;4993911;28;20057;-71
2023/02/27 12:56:55;;;;;;;1.00;0.55;;;;;;;;;;4946983;28;20081;-76
2023/02/27 12:59:34;;;;;;;2.45;1.05;;;;;;;;;;4991576;28;20058;-74
2023/02/27 13:02:00;;;;;;;;;;;;;;;;;;4982149;28;20084;-68
2023/02/27 13:04:29;;;;;;;6.85;0.75;;;;;;;;;;4969575;28;19960;-76
2023/02/27 13:06:58;;;;;;;1.63;0.60;;;;;;;;;;4965709;28;20109;-69
2023/02/27 13:09:28;;;;;;;1.70;0.60;;;;;;;;;;4984395;28;20120;-69
2023/02/27 13:12:00;;;;;;;1.38;0.47;;;;;;;;;;4976272;28;20074;-72
2023/02/27 13:14:34;;;;;;;0.50;0.43;;;;;;;;;;4979196;28;20500;-73
2023/02/27 13:17:03;;;;;;;0.98;0.70;;;;;;;;;;4999281;28;20087;-74
2023/02/27 13:19:32;;;;;;;0.60;0.60;;;;;;;;;;5020149;28;20176;-73
2023/02/27 13:22:03;;;;;;;1.05;0.70;;;;;;;;;;4978044;28;20058;-74
2023/02/27 13:24:31;;;;;;;1.35;0.70;;;;;;;;;;4978148;28;20064;-70
2023/02/27 13:27:00;;;;;;;2.60;0.90;;;;;;;;;;5002003;28;20094;-70
2023/02/27 13:29:32;;;;;;;0.75;0.60;;;;;;;;;;4969467;28;20194;-69
2023/02/27 13:32:04;;;;;;;2.42;0.85;;;;;;;;;;4958469;28;20112;-71
2023/02/27 13:34:34;;;;;;;0.85;0.70;;;;;;;;;;4980732;28;20053;-73
2023/02/27 13:37:02;;;;;;;2.22;0.85;;;;;;;;;;4985075;28;20085;-72
2023/02/27 13:39:54;;;;;;;1.23;0.75;;;;;;;;;;4996232;28;20077;-69
2023/02/27 13:42:42;;;;;;;2.03;0.73;;;;;;;;;;4981511;28;20066;-74
2023/02/27 13:45:42;;;;;;;1.20;0.73;;;;;;;;;;4969895;28;20246;-74
2023/02/27 13:48:23;;;;;;;2.10;1.10;;;;;;;;;;4968252;28;20154;-72
2023/02/27 13:50:52;;;;;;;1.25;0.80;;;;;;;;;;5001580;28;20171;-72
2023/02/27 13:53:23;;;;;;;0.98;0.73;;;;;;;;;;5003816;28;20136;-70
2023/02/27 13:55:52;;;;;;;2.33;1.00;;;;;;;;;;4970768;28;20133;-71
2023/02/27 13:58:22;;;;;;;2.95;0.98;;;;;;;;;;4993038;28;20061;-66
2023/02/27 14:00:58;;;;;;;2.00;0.85;;;;;;;;;;4999715;28;20056;-71
2023/02/27 14:03:26;;;;;;;2.10;0.80;;;;;;;;;;4957654;28;20046;-72
2023/02/27 14:05:57;;;;;;;1.30;0.85;;;;;;;;;;4982065;28;20070;-66
2023/02/27 14:08:24;;;;;;;3.33;0.95;;;;;;;;;;4982405;28;20081;-73
2023/02/27 14:10:53;;;;;;;0.88;0.68;;;;;;;;;;5001817;28;20057;-71
2023/02/27 14:13:39;;;;;;;2.63;0.73;;;;;;;;;;4986837;28;20116;-70
2023/02/27 14:16:08;;;;;;;3.92;0.98;;;;;;;;;;4949430;28;20050;-69
2023/02/27 14:18:52;;;;;;;1.95;1.00;;;;;;;;;;4939121;28;20082;-70
2023/02/27 14:21:37;;;;;;;1.58;0.77;;;;;;;;;;4962756;28;20208;-73
2023/02/27 14:24:05;;;;;;;1.95;0.70;;;;;;;;;;4942979;28;20085;-73
2023/02/27 14:31:46;;;;;;;1.48;1.00;;;;;;;;;;4954972;28;20161;-74
2023/02/27 14:36:41;;;;;;;1.10;0.65;;;;;;;;;;4890521;28;20066;-75
2023/02/27 14:39:18;;;;;;;1.65;0.90;;;;;;;;;;4947762;28;20139;-73
2023/02/27 14:41:47;;;;;;;1.55;0.88;;;;;;;;;;4913807;28;20250;-75
2023/02/27 14:44:18;;;;;;;2.20;0.95;;;;;;;;;;4938245;28;20241;-72
2023/02/27 14:46:46;;;;;;;2.50;0.82;;;;;;;;;;4953987;28;20053;-72
2023/02/27 14:49:23;;;;;;;1.55;0.80;;;;;;;;;;4950616;28;20050;-75
2023/02/27 14:51:50;;;;;;;3.25;1.25;;;;;;;;;;4967992;28;20149;-77
2023/02/27 14:54:19;;;;;;;1.92;0.90;;;;;;;;;;4974675;28;20137;-78
2023/02/27 14:56:55;;;;;;;2.78;0.90;;;;;;;;;;4952753;28;20058;-71
2023/02/27 14:59:23;;;;;;;1.67;0.93;;;;;;;;;;4957837;28;20070;-76
2023/02/27 15:01:51;;;;;;;1.27;0.77;;;;;;;;;;4949339;28;20050;-72
2023/02/27 15:04:19;;;;;;;;;;;;;;;;;;4874182;29;20124;-71
2023/02/27 15:06:53;;;;;;;2.13;0.95;;;;;;;;;;4905089;28;19957;-72
2023/02/27 15:09:22;;;;;;;4.60;1.00;;;;;;;;;;4928090;28;20047;-69
2023/02/27 15:11:49;;;;;;;3.75;1.20;;;;;;;;;;4917177;28;20059;-74
2023/02/27 15:14:18;;;;;;;2.13;0.95;;;;;;;;;;4945123;28;20054;-74
2023/02/27 15:16:45;;;;;;;2.10;1.08;;;;;;;;;;4949028;28;20059;-71